Piper — WDE6779 — position and weather

sailwx.info

Track history (hours):
 
Tides and Currents Weather Stations Pressure Air Temp Water Temp Dewpoint Dewpoint Depression Visibility Wind Speed Wind Dir Waves Ship Positions

Piper

Owner: ADS MARINE, LLC, MORGAN CITY, LA. More information available from US FCC via Universal Licensing System and Coast Guard Vessel Documentation Center.

Last reported at 2016-Sep-27 00:33 UTC. Time now 2016-Sep-28 12:02 UTC.
Position N 29°47' W 092°11'.

Length 40 m; draft 3 m.

Type: Cargo ship. MMSI: 367384720.

Date/timePositionNaut miles runAvg speedWind from/ knotsBaromVisibWave heightAir tempDewpointWater temp
2016-Sep-27 00:33N 29°47' W 092°11'0 0.0
2016-Sep-26 20:33N 29°47' W 092°11'0 0.0
2016-Sep-26 19:33N 29°47' W 092°11'1 0.2
2016-Sep-26 15:33N 29°47' W 092°10'0 0.0
2016-Sep-26 13:33N 29°47' W 092°10'1 0.4
2016-Sep-26 11:34N 29°47' W 092°11'17 5.5
2016-Sep-26 08:33N 29°32' W 092°19'  
2016-Sep-20 13:33N 29°30' W 092°19'18 6.0
2016-Sep-20 10:33N 29°46' W 092°10'0 0.2
2016-Sep-20 08:33N 29°47' W 092°10'0 0.0
2016-Sep-20 07:33N 29°47' W 092°10'0 0.0
2016-Sep-20 06:33N 29°47' W 092°10'0 0.0
2016-Sep-20 02:33N 29°47' W 092°10'0 0.0
2016-Sep-19 23:33N 29°47' W 092°10'1 0.2
2016-Sep-19 19:33N 29°47' W 092°11'0 0.0
2016-Sep-19 18:33N 29°47' W 092°11'0 0.0
2016-Sep-19 16:33N 29°47' W 092°11'5 2.6
2016-Sep-19 14:33N 29°43' W 092°15'7 6.7
2016-Sep-19 13:34N 29°36' W 092°17'  
Track history (hours):
 
Tides and Currents Weather Stations Pressure Air Temp Water Temp Dewpoint Dewpoint Depression Visibility Wind Speed Wind Dir Waves Ship Positions

Piper

Owner: ADS MARINE, LLC, MORGAN CITY, LA. More information available from US FCC via Universal Licensing System and Coast Guard Vessel Documentation Center.

Last reported at 2016-Sep-27 00:33 UTC. Time now 2016-Sep-28 12:02 UTC.
Position N 29°47' W 092°11'.

Length 40 m; draft 3 m.

Type: Cargo ship. MMSI: 367384720.

Date/timePositionNaut miles runAvg speedWind from/ knotsBaromVisibWave heightAir tempDewpointWater temp
2016-Sep-27 00:33N 29°47' W 092°11'0 0.0
2016-Sep-26 20:33N 29°47' W 092°11'0 0.0
2016-Sep-26 19:33N 29°47' W 092°11'1 0.2
2016-Sep-26 15:33N 29°47' W 092°10'0 0.0
2016-Sep-26 13:33N 29°47' W 092°10'1 0.4
2016-Sep-26 11:34N 29°47' W 092°11'17 5.5
2016-Sep-26 08:33N 29°32' W 092°19'  
2016-Sep-20 13:33N 29°30' W 092°19'18 6.0
2016-Sep-20 10:33N 29°46' W 092°10'0 0.2
2016-Sep-20 08:33N 29°47' W 092°10'0 0.0
2016-Sep-20 07:33N 29°47' W 092°10'0 0.0
2016-Sep-20 06:33N 29°47' W 092°10'0 0.0
2016-Sep-20 02:33N 29°47' W 092°10'0 0.0
2016-Sep-19 23:33N 29°47' W 092°10'1 0.2
2016-Sep-19 19:33N 29°47' W 092°11'0 0.0
2016-Sep-19 18:33N 29°47' W 092°11'0 0.0
2016-Sep-19 16:33N 29°47' W 092°11'5 2.6
2016-Sep-19 14:33N 29°43' W 092°15'7 6.7
2016-Sep-19 13:34N 29°36' W 092°17'  

Dump ship's entire track history